sensor_id;sensor_type;location;lat;lon;timestamp;temperature;humidity
8043;DHT22;4064;48.132;11.366;2023-05-27T00:00:07;14.40;93.20
8043;DHT22;4064;48.132;11.366;2023-05-27T00:02:34;14.40;93.30
8043;DHT22;4064;48.132;11.366;2023-05-27T00:05:01;14.30;93.40
8043;DHT22;4064;48.132;11.366;2023-05-27T00:07:27;14.20;93.60
8043;DHT22;4064;48.132;11.366;2023-05-27T00:09:53;14.20;94.00
8043;DHT22;4064;48.132;11.366;2023-05-27T00:12:20;14.10;93.70
8043;DHT22;4064;48.132;11.366;2023-05-27T00:14:46;14.10;94.00
8043;DHT22;4064;48.132;11.366;2023-05-27T00:17:12;14.00;94.10
8043;DHT22;4064;48.132;11.366;2023-05-27T00:19:41;14.00;94.40
8043;DHT22;4064;48.132;11.366;2023-05-27T00:22:08;13.90;94.40
8043;DHT22;4064;48.132;11.366;2023-05-27T00:24:35;13.80;94.60
8043;DHT22;4064;48.132;11.366;2023-05-27T00:27:03;13.80;94.90
8043;DHT22;4064;48.132;11.366;2023-05-27T00:29:29;13.70;94.90
8043;DHT22;4064;48.132;11.366;2023-05-27T00:31:55;13.70;94.90
8043;DHT22;4064;48.132;11.366;2023-05-27T00:34:20;13.70;95.10
8043;DHT22;4064;48.132;11.366;2023-05-27T00:36:47;13.70;95.20
8043;DHT22;4064;48.132;11.366;2023-05-27T00:39:13;13.70;95.10
8043;DHT22;4064;48.132;11.366;2023-05-27T00:41:43;13.60;95.20
8043;DHT22;4064;48.132;11.366;2023-05-27T00:44:13;13.60;95.10
8043;DHT22;4064;48.132;11.366;2023-05-27T00:46:38;13.60;95.50
8043;DHT22;4064;48.132;11.366;2023-05-27T00:49:05;13.50;95.20
8043;DHT22;4064;48.132;11.366;2023-05-27T00:51:32;13.50;95.30
8043;DHT22;4064;48.132;11.366;2023-05-27T00:53:58;13.40;95.70
8043;DHT22;4064;48.132;11.366;2023-05-27T00:56:24;13.40;95.80
8043;DHT22;4064;48.132;11.366;2023-05-27T00:58:51;13.40;95.60
8043;DHT22;4064;48.132;11.366;2023-05-27T01:01:17;13.30;95.70
8043;DHT22;4064;48.132;11.366;2023-05-27T01:03:46;13.30;95.90
8043;DHT22;4064;48.132;11.366;2023-05-27T01:09:25;13.20;95.90
8043;DHT22;4064;48.132;11.366;2023-05-27T01:12:38;13.20;95.90
8043;DHT22;4064;48.132;11.366;2023-05-27T01:15:02;13.20;96.20
8043;DHT22;4064;48.132;11.366;2023-05-27T01:17:32;13.10;96.00
8043;DHT22;4064;48.132;11.366;2023-05-27T01:20:02;13.10;96.40
8043;DHT22;4064;48.132;11.366;2023-05-27T01:22:31;13.00;96.40
8043;DHT22;4064;48.132;11.366;2023-05-27T01:24:57;13.00;96.50
8043;DHT22;4064;48.132;11.366;2023-05-27T01:27:23;13.00;96.80
8043;DHT22;4064;48.132;11.366;2023-05-27T01:29:53;13.00;96.60
8043;DHT22;4064;48.132;11.366;2023-05-27T01:32:33;12.90;96.60
8043;DHT22;4064;48.132;11.366;2023-05-27T01:37:51;12.90;97.00
8043;DHT22;4064;48.132;11.366;2023-05-27T01:40:18;12.90;96.70
8043;DHT22;4064;48.132;11.366;2023-05-27T01:42:44;12.90;96.80
8043;DHT22;4064;48.132;11.366;2023-05-27T01:45:11;12.80;96.70
8043;DHT22;4064;48.132;11.366;2023-05-27T01:47:37;12.70;97.00
8043;DHT22;4064;48.132;11.366;2023-05-27T01:50:04;12.70;97.30
8043;DHT22;4064;48.132;11.366;2023-05-27T01:52:31;12.70;97.30
8043;DHT22;4064;48.132;11.366;2023-05-27T01:54:57;12.70;97.50
8043;DHT22;4064;48.132;11.366;2023-05-27T01:57:25;12.60;97.70
8043;DHT22;4064;48.132;11.366;2023-05-27T01:59:51;12.60;97.80
8043;DHT22;4064;48.132;11.366;2023-05-27T02:02:17;12.50;97.80
8043;DHT22;4064;48.132;11.366;2023-05-27T02:04:43;12.60;98.20
8043;DHT22;4064;48.132;11.366;2023-05-27T02:07:09;12.60;98.30
8043;DHT22;4064;48.132;11.366;2023-05-27T02:09:36;12.60;98.10
8043;DHT22;4064;48.132;11.366;2023-05-27T02:12:02;12.50;98.40
8043;DHT22;4064;48.132;11.366;2023-05-27T02:14:28;12.50;98.40
8043;DHT22;4064;48.132;11.366;2023-05-27T02:16:53;12.50;98.50
8043;DHT22;4064;48.132;11.366;2023-05-27T02:19:20;12.50;98.50
8043;DHT22;4064;48.132;11.366;2023-05-27T02:21:46;12.50;98.70
8043;DHT22;4064;48.132;11.366;2023-05-27T02:24:13;12.50;98.80
8043;DHT22;4064;48.132;11.366;2023-05-27T02:26:38;12.50;98.90
8043;DHT22;4064;48.132;11.366;2023-05-27T02:29:04;12.40;98.90
8043;DHT22;4064;48.132;11.366;2023-05-27T02:31:30;12.40;98.80
8043;DHT22;4064;48.132;11.366;2023-05-27T02:33:56;12.40;98.90
8043;DHT22;4064;48.132;11.366;2023-05-27T02:36:22;12.40;99.20
8043;DHT22;4064;48.132;11.366;2023-05-27T02:38:49;12.40;99.30
8043;DHT22;4064;48.132;11.366;2023-05-27T02:41:15;12.40;99.40
8043;DHT22;4064;48.132;11.366;2023-05-27T02:43:41;12.40;99.20
8043;DHT22;4064;48.132;11.366;2023-05-27T02:46:06;12.30;99.50
8043;DHT22;4064;48.132;11.366;2023-05-27T02:48:32;12.30;99.60
8043;DHT22;4064;48.132;11.366;2023-05-27T02:50:58;12.30;99.90
8043;DHT22;4064;48.132;11.366;2023-05-27T02:53:23;12.20;99.70
8043;DHT22;4064;48.132;11.366;2023-05-27T02:55:50;12.20;99.90
8043;DHT22;4064;48.132;11.366;2023-05-27T02:58:16;12.20;99.90
8043;DHT22;4064;48.132;11.366;2023-05-27T03:00:42;12.10;99.90
8043;DHT22;4064;48.132;11.366;2023-05-27T03:03:08;12.10;99.90
8043;DHT22;4064;48.132;11.366;2023-05-27T03:05:35;12.00;99.90
8043;DHT22;4064;48.132;11.366;2023-05-27T03:08:02;12.00;99.90
8043;DHT22;4064;48.132;11.366;2023-05-27T03:10:28;12.00;99.90
8043;DHT22;4064;48.132;11.366;2023-05-27T03:12:54;12.00;99.90
8043;DHT22;4064;48.132;11.366;2023-05-27T03:15:21;11.90;99.90
8043;DHT22;4064;48.132;11.366;2023-05-27T03:17:47;11.80;99.90
8043;DHT22;4064;48.132;11.366;2023-05-27T03:20:13;11.90;99.90
8043;DHT22;4064;48.132;11.366;2023-05-27T03:22:39;11.90;99.90
8043;DHT22;4064;48.132;11.366;2023-05-27T03:25:05;11.90;99.90
8043;DHT22;4064;48.132;11.366;2023-05-27T03:27:31;11.80;99.90
8043;DHT22;4064;48.132;11.366;2023-05-27T03:29:57;11.80;99.90
8043;DHT22;4064;48.132;11.366;2023-05-27T03:32:23;11.80;99.90
8043;DHT22;4064;48.132;11.366;2023-05-27T03:34:49;11.70;99.90
8043;DHT22;4064;48.132;11.366;2023-05-27T03:37:15;11.70;99.90
8043;DHT22;4064;48.132;11.366;2023-05-27T03:39:41;11.70;99.90
8043;DHT22;4064;48.132;11.366;2023-05-27T03:42:07;11.80;99.90
8043;DHT22;4064;48.132;11.366;2023-05-27T03:44:33;11.70;99.90
8043;DHT22;4064;48.132;11.366;2023-05-27T03:47:02;11.70;99.90
8043;DHT22;4064;48.132;11.366;2023-05-27T03:49:28;11.70;99.90
8043;DHT22;4064;48.132;11.366;2023-05-27T03:51:54;11.70;99.90
8043;DHT22;4064;48.132;11.366;2023-05-27T03:54:20;11.70;99.90
8043;DHT22;4064;48.132;11.366;2023-05-27T03:56:45;11.70;99.90
8043;DHT22;4064;48.132;11.366;2023-05-27T03:59:11;11.70;99.90
8043;DHT22;4064;48.132;11.366;2023-05-27T04:01:38;11.70;99.90
8043;DHT22;4064;48.132;11.366;2023-05-27T04:04:05;11.80;99.90
8043;DHT22;4064;48.132;11.366;2023-05-27T04:06:31;11.80;99.90
8043;DHT22;4064;48.132;11.366;2023-05-27T04:08:57;11.90;99.90
8043;DHT22;4064;48.132;11.366;2023-05-27T04:11:25;11.90;99.90
8043;DHT22;4064;48.132;11.366;2023-05-27T04:13:52;11.90;99.90
8043;DHT22;4064;48.132;11.366;2023-05-27T04:16:18;11.90;99.90
8043;DHT22;4064;48.132;11.366;2023-05-27T04:18:44;12.00;99.90
8043;DHT22;4064;48.132;11.366;2023-05-27T04:21:18;11.90;99.90
8043;DHT22;4064;48.132;11.366;2023-05-27T04:23:44;12.00;99.90
8043;DHT22;4064;48.132;11.366;2023-05-27T04:26:10;12.00;99.90
8043;DHT22;4064;48.132;11.366;2023-05-27T04:28:36;12.00;99.90
8043;DHT22;4064;48.132;11.366;2023-05-27T04:31:05;12.00;99.90
8043;DHT22;4064;48.132;11.366;2023-05-27T04:33:31;12.00;99.90
8043;DHT22;4064;48.132;11.366;2023-05-27T04:35:58;12.00;99.90
8043;DHT22;4064;48.132;11.366;2023-05-27T04:38:24;12.00;99.90
8043;DHT22;4064;48.132;11.366;2023-05-27T04:40:50;12.10;99.90
8043;DHT22;4064;48.132;11.366;2023-05-27T04:43:22;12.10;99.90
8043;DHT22;4064;48.132;11.366;2023-05-27T04:45:49;12.10;99.90
8043;DHT22;4064;48.132;11.366;2023-05-27T04:48:15;12.20;99.90
8043;DHT22;4064;48.132;11.366;2023-05-27T04:50:41;12.20;99.90
8043;DHT22;4064;48.132;11.366;2023-05-27T04:53:07;12.30;99.90
8043;DHT22;4064;48.132;11.366;2023-05-27T04:55:34;12.40;99.90
8043;DHT22;4064;48.132;11.366;2023-05-27T04:58:00;12.40;99.90
8043;DHT22;4064;48.132;11.366;2023-05-27T05:00:29;12.50;99.90
8043;DHT22;4064;48.132;11.366;2023-05-27T05:03:05;12.50;99.90
8043;DHT22;4064;48.132;11.366;2023-05-27T05:05:31;12.60;99.90
8043;DHT22;4064;48.132;11.366;2023-05-27T05:07:57;12.70;99.90
8043;DHT22;4064;48.132;11.366;2023-05-27T05:10:23;12.80;99.90
8043;DHT22;4064;48.132;11.366;2023-05-27T05:12:50;12.90;99.90
8043;DHT22;4064;48.132;11.366;2023-05-27T05:15:15;13.00;99.90
8043;DHT22;4064;48.132;11.366;2023-05-27T05:17:42;13.10;99.90
8043;DHT22;4064;48.132;11.366;2023-05-27T05:20:09;13.30;99.90
8043;DHT22;4064;48.132;11.366;2023-05-27T05:22:35;13.40;99.90
8043;DHT22;4064;48.132;11.366;2023-05-27T05:25:01;13.70;99.90
8043;DHT22;4064;48.132;11.366;2023-05-27T05:27:27;13.90;99.90
8043;DHT22;4064;48.132;11.366;2023-05-27T05:29:53;14.10;99.90
8043;DHT22;4064;48.132;11.366;2023-05-27T05:32:20;14.30;99.90
8043;DHT22;4064;48.132;11.366;2023-05-27T05:34:46;14.40;99.90
8043;DHT22;4064;48.132;11.366;2023-05-27T05:37:11;14.60;99.90
8043;DHT22;4064;48.132;11.366;2023-05-27T05:39:37;14.80;99.90
8043;DHT22;4064;48.132;11.366;2023-05-27T05:42:03;15.00;99.90
8043;DHT22;4064;48.132;11.366;2023-05-27T05:44:30;15.10;99.90
8043;DHT22;4064;48.132;11.366;2023-05-27T05:46:56;15.20;99.40
8043;DHT22;4064;48.132;11.366;2023-05-27T05:49:22;15.30;98.80
8043;DHT22;4064;48.132;11.366;2023-05-27T05:51:47;15.30;98.60
8043;DHT22;4064;48.132;11.366;2023-05-27T05:54:13;15.40;98.40
8043;DHT22;4064;48.132;11.366;2023-05-27T05:56:39;15.50;98.30
8043;DHT22;4064;48.132;11.366;2023-05-27T05:59:05;15.70;98.40
8043;DHT22;4064;48.132;11.366;2023-05-27T06:01:31;15.90;98.20
8043;DHT22;4064;48.132;11.366;2023-05-27T06:03:56;16.00;97.10
8043;DHT22;4064;48.132;11.366;2023-05-27T06:06:24;16.10;96.00
8043;DHT22;4064;48.132;11.366;2023-05-27T06:08:50;16.10;95.50
8043;DHT22;4064;48.132;11.366;2023-05-27T06:11:15;16.20;95.20
8043;DHT22;4064;48.132;11.366;2023-05-27T06:13:41;16.40;94.90
8043;DHT22;4064;48.132;11.366;2023-05-27T06:16:07;16.50;94.10
8043;DHT22;4064;48.132;11.366;2023-05-27T06:18:33;16.60;93.80
8043;DHT22;4064;48.132;11.366;2023-05-27T06:20:59;16.70;93.60
8043;DHT22;4064;48.132;11.366;2023-05-27T06:23:25;16.70;92.90
8043;DHT22;4064;48.132;11.366;2023-05-27T06:25:51;16.80;92.00
8043;DHT22;4064;48.132;11.366;2023-05-27T06:28:17;16.90;91.30
8043;DHT22;4064;48.132;11.366;2023-05-27T06:30:43;17.00;91.90
8043;DHT22;4064;48.132;11.366;2023-05-27T06:33:09;17.20;92.30
8043;DHT22;4064;48.132;11.366;2023-05-27T06:35:35;17.30;91.00
8043;DHT22;4064;48.132;11.366;2023-05-27T06:38:01;17.40;90.40
8043;DHT22;4064;48.132;11.366;2023-05-27T06:40:27;17.50;90.00
8043;DHT22;4064;48.132;11.366;2023-05-27T06:42:54;17.60;90.50
8043;DHT22;4064;48.132;11.366;2023-05-27T06:45:20;17.70;90.20
8043;DHT22;4064;48.132;11.366;2023-05-27T06:47:46;17.70;90.00
8043;DHT22;4064;48.132;11.366;2023-05-27T06:50:12;17.90;90.70
8043;DHT22;4064;48.132;11.366;2023-05-27T06:52:38;18.00;89.60
8043;DHT22;4064;48.132;11.366;2023-05-27T06:55:04;18.20;87.60
8043;DHT22;4064;48.132;11.366;2023-05-27T06:57:30;18.20;86.70
8043;DHT22;4064;48.132;11.366;2023-05-27T06:59:56;18.30;88.50
8043;DHT22;4064;48.132;11.366;2023-05-27T07:02:21;18.30;87.10
8043;DHT22;4064;48.132;11.366;2023-05-27T07:04:47;18.40;86.80
8043;DHT22;4064;48.132;11.366;2023-05-27T07:07:13;18.60;85.90
8043;DHT22;4064;48.132;11.366;2023-05-27T07:09:39;18.70;84.40
8043;DHT22;4064;48.132;11.366;2023-05-27T07:12:05;18.90;84.50
8043;DHT22;4064;48.132;11.366;2023-05-27T07:14:34;19.10;84.10
8043;DHT22;4064;48.132;11.366;2023-05-27T07:17:01;19.60;84.80
8043;DHT22;4064;48.132;11.366;2023-05-27T07:19:26;20.40;81.80
8043;DHT22;4064;48.132;11.366;2023-05-27T07:21:52;20.70;79.00
8043;DHT22;4064;48.132;11.366;2023-05-27T07:24:18;20.90;78.10
8043;DHT22;4064;48.132;11.366;2023-05-27T07:26:44;21.10;76.80
8043;DHT22;4064;48.132;11.366;2023-05-27T07:29:10;21.10;76.80
8043;DHT22;4064;48.132;11.366;2023-05-27T07:31:36;21.20;76.30
8043;DHT22;4064;48.132;11.366;2023-05-27T07:34:02;21.40;74.90
8043;DHT22;4064;48.132;11.366;2023-05-27T07:36:29;21.50;74.30
8043;DHT22;4064;48.132;11.366;2023-05-27T07:38:54;21.80;74.20
8043;DHT22;4064;48.132;11.366;2023-05-27T07:41:20;22.10;73.70
8043;DHT22;4064;48.132;11.366;2023-05-27T07:43:47;22.10;71.70
8043;DHT22;4064;48.132;11.366;2023-05-27T07:46:12;22.10;71.60
8043;DHT22;4064;48.132;11.366;2023-05-27T07:48:38;22.20;71.90
8043;DHT22;4064;48.132;11.366;2023-05-27T07:51:04;22.50;73.80
8043;DHT22;4064;48.132;11.366;2023-05-27T07:53:30;22.70;68.30
8043;DHT22;4064;48.132;11.366;2023-05-27T07:55:56;22.70;68.60
8043;DHT22;4064;48.132;11.366;2023-05-27T07:58:22;23.00;69.70
8043;DHT22;4064;48.132;11.366;2023-05-27T08:00:48;23.30;69.60
8043;DHT22;4064;48.132;11.366;2023-05-27T08:03:14;23.40;68.30
8043;DHT22;4064;48.132;11.366;2023-05-27T08:05:40;23.60;66.60
8043;DHT22;4064;48.132;11.366;2023-05-27T08:08:05;23.60;65.00
8043;DHT22;4064;48.132;11.366;2023-05-27T08:10:31;23.60;66.50
8043;DHT22;4064;48.132;11.366;2023-05-27T08:12:57;23.80;65.80
8043;DHT22;4064;48.132;11.366;2023-05-27T08:15:23;24.10;65.40
8043;DHT22;4064;48.132;11.366;2023-05-27T08:17:48;24.00;64.20
8043;DHT22;4064;48.132;11.366;2023-05-27T08:20:14;24.20;64.70
8043;DHT22;4064;48.132;11.366;2023-05-27T08:22:41;24.30;64.40
8043;DHT22;4064;48.132;11.366;2023-05-27T08:25:07;24.30;63.20
8043;DHT22;4064;48.132;11.366;2023-05-27T08:27:53;24.50;62.40
8043;DHT22;4064;48.132;11.366;2023-05-27T08:30:22;24.70;61.60
8043;DHT22;4064;48.132;11.366;2023-05-27T08:32:48;24.70;60.80
8043;DHT22;4064;48.132;11.366;2023-05-27T08:35:14;24.90;61.40
8043;DHT22;4064;48.132;11.366;2023-05-27T08:37:42;25.00;60.90
8043;DHT22;4064;48.132;11.366;2023-05-27T08:40:13;25.10;60.40
8043;DHT22;4064;48.132;11.366;2023-05-27T08:42:40;25.20;60.00
8043;DHT22;4064;48.132;11.366;2023-05-27T08:45:09;25.20;59.30
8043;DHT22;4064;48.132;11.366;2023-05-27T08:47:35;25.40;57.60
8043;DHT22;4064;48.132;11.366;2023-05-27T08:50:01;25.10;58.30
8043;DHT22;4064;48.132;11.366;2023-05-27T08:52:29;25.10;58.10
8043;DHT22;4064;48.132;11.366;2023-05-27T08:54:56;25.20;57.70
8043;DHT22;4064;48.132;11.366;2023-05-27T08:57:27;25.30;56.50
8043;DHT22;4064;48.132;11.366;2023-05-27T08:59:53;25.20;56.90
8043;DHT22;4064;48.132;11.366;2023-05-27T09:02:22;25.30;58.20
8043;DHT22;4064;48.132;11.366;2023-05-27T09:04:49;25.50;57.20
8043;DHT22;4064;48.132;11.366;2023-05-27T09:07:17;25.70;55.20
8043;DHT22;4064;48.132;11.366;2023-05-27T09:09:55;25.70;56.50
8043;DHT22;4064;48.132;11.366;2023-05-27T09:12:24;25.90;56.30
8043;DHT22;4064;48.132;11.366;2023-05-27T09:14:51;25.90;55.50
8043;DHT22;4064;48.132;11.366;2023-05-27T09:17:17;25.80;55.10
8043;DHT22;4064;48.132;11.366;2023-05-27T09:19:44;25.90;55.40
8043;DHT22;4064;48.132;11.366;2023-05-27T09:24:48;25.90;54.90
8043;DHT22;4064;48.132;11.366;2023-05-27T09:27:15;25.80;53.80
8043;DHT22;4064;48.132;11.366;2023-05-27T09:29:41;25.70;53.90
8043;DHT22;4064;48.132;11.366;2023-05-27T09:32:07;25.40;53.80
8043;DHT22;4064;48.132;11.366;2023-05-27T09:34:39;25.50;54.10
8043;DHT22;4064;48.132;11.366;2023-05-27T09:37:12;25.40;55.30
8043;DHT22;4064;48.132;11.366;2023-05-27T09:39:41;25.50;55.30
8043;DHT22;4064;48.132;11.366;2023-05-27T09:42:07;25.70;54.90
8043;DHT22;4064;48.132;11.366;2023-05-27T09:44:36;25.70;53.80
8043;DHT22;4064;48.132;11.366;2023-05-27T09:47:08;25.80;55.80
8043;DHT22;4064;48.132;11.366;2023-05-27T09:49:37;26.10;54.80
8043;DHT22;4064;48.132;11.366;2023-05-27T09:52:05;26.30;54.30
8043;DHT22;4064;48.132;11.366;2023-05-27T09:54:32;26.20;53.20
8043;DHT22;4064;48.132;11.366;2023-05-27T09:56:59;25.70;54.50
8043;DHT22;4064;48.132;11.366;2023-05-27T09:59:26;25.80;54.70
8043;DHT22;4064;48.132;11.366;2023-05-27T10:01:52;25.70;53.70
8043;DHT22;4064;48.132;11.366;2023-05-27T10:04:19;25.80;53.70
8043;DHT22;4064;48.132;11.366;2023-05-27T10:06:45;25.80;53.00
8043;DHT22;4064;48.132;11.366;2023-05-27T10:09:12;25.60;53.60
8043;DHT22;4064;48.132;11.366;2023-05-27T10:11:43;25.70;54.00
8043;DHT22;4064;48.132;11.366;2023-05-27T10:14:10;25.80;54.80
8043;DHT22;4064;48.132;11.366;2023-05-27T10:16:37;25.80;54.00
8043;DHT22;4064;48.132;11.366;2023-05-27T10:19:09;25.80;53.00
8043;DHT22;4064;48.132;11.366;2023-05-27T10:21:43;25.60;52.60
8043;DHT22;4064;48.132;11.366;2023-05-27T10:24:14;25.40;52.60
8043;DHT22;4064;48.132;11.366;2023-05-27T10:26:42;25.20;53.30
8043;DHT22;4064;48.132;11.366;2023-05-27T10:29:13;25.30;53.70
8043;DHT22;4064;48.132;11.366;2023-05-27T10:31:50;25.40;53.50
8043;DHT22;4064;48.132;11.366;2023-05-27T10:34:16;25.30;51.90
8043;DHT22;4064;48.132;11.366;2023-05-27T10:36:47;25.10;51.10
8043;DHT22;4064;48.132;11.366;2023-05-27T10:39:23;25.00;51.20
8043;DHT22;4064;48.132;11.366;2023-05-27T10:41:54;25.20;51.70
8043;DHT22;4064;48.132;11.366;2023-05-27T10:44:31;25.20;51.80
8043;DHT22;4064;48.132;11.366;2023-05-27T10:49:27;25.40;50.90
8043;DHT22;4064;48.132;11.366;2023-05-27T10:51:58;25.50;51.50
8043;DHT22;4064;48.132;11.366;2023-05-27T10:54:26;25.70;52.30
8043;DHT22;4064;48.132;11.366;2023-05-27T10:56:52;25.50;50.50
8043;DHT22;4064;48.132;11.366;2023-05-27T10:59:22;25.60;50.60
8043;DHT22;4064;48.132;11.366;2023-05-27T11:01:52;25.70;50.70
8043;DHT22;4064;48.132;11.366;2023-05-27T11:04:19;25.70;50.30
8043;DHT22;4064;48.132;11.366;2023-05-27T11:07:01;25.70;50.70
8043;DHT22;4064;48.132;11.366;2023-05-27T11:09:27;25.80;49.80
8043;DHT22;4064;48.132;11.366;2023-05-27T11:11:56;25.60;50.60
8043;DHT22;4064;48.132;11.366;2023-05-27T11:14:25;25.50;50.50
8043;DHT22;4064;48.132;11.366;2023-05-27T11:16:54;25.40;51.60
8043;DHT22;4064;48.132;11.366;2023-05-27T11:19:23;25.60;51.60
8043;DHT22;4064;48.132;11.366;2023-05-27T11:21:49;25.40;50.70
8043;DHT22;4064;48.132;11.366;2023-05-27T11:24:19;25.20;50.20
8043;DHT22;4064;48.132;11.366;2023-05-27T11:26:47;25.20;50.70
8043;DHT22;4064;48.132;11.366;2023-05-27T11:29:14;25.40;50.50
8043;DHT22;4064;48.132;11.366;2023-05-27T11:31:45;25.60;51.30
8043;DHT22;4064;48.132;11.366;2023-05-27T11:34:12;25.60;51.10
8043;DHT22;4064;48.132;11.366;2023-05-27T11:36:39;25.80;51.70
8043;DHT22;4064;48.132;11.366;2023-05-27T11:39:05;25.80;49.70
8043;DHT22;4064;48.132;11.366;2023-05-27T11:41:35;25.60;50.80
8043;DHT22;4064;48.132;11.366;2023-05-27T11:44:04;25.50;52.30
8043;DHT22;4064;48.132;11.366;2023-05-27T11:49:01;25.80;51.50
8043;DHT22;4064;48.132;11.366;2023-05-27T11:51:28;25.90;51.30
8043;DHT22;4064;48.132;11.366;2023-05-27T11:53:55;25.90;50.70
8043;DHT22;4064;48.132;11.366;2023-05-27T11:56:21;25.80;50.60
8043;DHT22;4064;48.132;11.366;2023-05-27T11:58:47;25.90;51.30
8043;DHT22;4064;48.132;11.366;2023-05-27T12:01:13;26.10;52.40
8043;DHT22;4064;48.132;11.366;2023-05-27T12:03:39;26.20;50.70
8043;DHT22;4064;48.132;11.366;2023-05-27T12:06:05;26.30;51.10
8043;DHT22;4064;48.132;11.366;2023-05-27T12:08:31;26.40;50.20
8043;DHT22;4064;48.132;11.366;2023-05-27T12:10:57;26.50;50.80
8043;DHT22;4064;48.132;11.366;2023-05-27T12:13:23;26.60;50.70
8043;DHT22;4064;48.132;11.366;2023-05-27T12:15:50;26.70;50.20
8043;DHT22;4064;48.132;11.366;2023-05-27T12:18:17;26.70;49.20
8043;DHT22;4064;48.132;11.366;2023-05-27T12:20:44;26.60;49.20
8043;DHT22;4064;48.132;11.366;2023-05-27T12:23:10;26.60;48.40
8043;DHT22;4064;48.132;11.366;2023-05-27T12:25:36;26.60;47.60
8043;DHT22;4064;48.132;11.366;2023-05-27T12:28:02;26.50;48.20
8043;DHT22;4064;48.132;11.366;2023-05-27T12:30:28;26.50;47.30
8043;DHT22;4064;48.132;11.366;2023-05-27T12:32:54;26.40;48.10
8043;DHT22;4064;48.132;11.366;2023-05-27T12:35:20;26.30;47.90
8043;DHT22;4064;48.132;11.366;2023-05-27T12:37:46;26.30;47.90
8043;DHT22;4064;48.132;11.366;2023-05-27T12:40:12;26.10;47.60
8043;DHT22;4064;48.132;11.366;2023-05-27T12:42:41;26.20;48.40
8043;DHT22;4064;48.132;11.366;2023-05-27T12:45:09;26.40;48.30
8043;DHT22;4064;48.132;11.366;2023-05-27T12:47:36;26.50;47.40
8043;DHT22;4064;48.132;11.366;2023-05-27T12:50:02;26.60;48.00
8043;DHT22;4064;48.132;11.366;2023-05-27T12:52:28;26.50;46.60
8043;DHT22;4064;48.132;11.366;2023-05-27T12:54:54;26.60;47.70
8043;DHT22;4064;48.132;11.366;2023-05-27T12:57:20;26.80;46.40
8043;DHT22;4064;48.132;11.366;2023-05-27T12:59:46;26.80;47.10
8043;DHT22;4064;48.132;11.366;2023-05-27T13:02:12;26.90;47.30
8043;DHT22;4064;48.132;11.366;2023-05-27T13:04:37;26.90;47.40
8043;DHT22;4064;48.132;11.366;2023-05-27T13:07:04;27.00;46.50
8043;DHT22;4064;48.132;11.366;2023-05-27T13:09:30;26.70;45.90
8043;DHT22;4064;48.132;11.366;2023-05-27T13:11:57;26.50;45.90
8043;DHT22;4064;48.132;11.366;2023-05-27T13:14:23;26.30;47.20
8043;DHT22;4064;48.132;11.366;2023-05-27T13:16:48;26.40;46.40
8043;DHT22;4064;48.132;11.366;2023-05-27T13:19:14;26.20;45.00
8043;DHT22;4064;48.132;11.366;2023-05-27T13:21:41;25.90;45.80
8043;DHT22;4064;48.132;11.366;2023-05-27T13:24:07;25.90;46.00
8043;DHT22;4064;48.132;11.366;2023-05-27T13:26:33;26.00;46.80
8043;DHT22;4064;48.132;11.366;2023-05-27T13:28:58;26.10;46.90
8043;DHT22;4064;48.132;11.366;2023-05-27T13:31:24;26.10;46.70
8043;DHT22;4064;48.132;11.366;2023-05-27T13:33:50;25.90;47.00
8043;DHT22;4064;48.132;11.366;2023-05-27T13:36:16;25.50;45.70
8043;DHT22;4064;48.132;11.366;2023-05-27T13:38:42;25.60;46.50
8043;DHT22;4064;48.132;11.366;2023-05-27T13:41:08;25.60;45.90
8043;DHT22;4064;48.132;11.366;2023-05-27T13:43:34;25.60;46.00
8043;DHT22;4064;48.132;11.366;2023-05-27T13:46:01;25.80;46.20
8043;DHT22;4064;48.132;11.366;2023-05-27T13:48:27;25.80;46.30
8043;DHT22;4064;48.132;11.366;2023-05-27T13:50:53;25.80;45.70
8043;DHT22;4064;48.132;11.366;2023-05-27T13:53:18;25.70;44.70
8043;DHT22;4064;48.132;11.366;2023-05-27T13:55:44;25.70;44.70
8043;DHT22;4064;48.132;11.366;2023-05-27T13:58:10;25.50;44.70
8043;DHT22;4064;48.132;11.366;2023-05-27T14:00:36;25.40;44.60
8043;DHT22;4064;48.132;11.366;2023-05-27T14:03:02;25.30;44.50
8043;DHT22;4064;48.132;11.366;2023-05-27T14:05:28;25.30;45.50
8043;DHT22;4064;48.132;11.366;2023-05-27T14:07:55;25.40;45.60
8043;DHT22;4064;48.132;11.366;2023-05-27T14:10:22;25.30;44.60
8043;DHT22;4064;48.132;11.366;2023-05-27T14:12:48;25.00;45.00
8043;DHT22;4064;48.132;11.366;2023-05-27T14:15:13;24.80;44.70
8043;DHT22;4064;48.132;11.366;2023-05-27T14:17:39;24.60;45.40
8043;DHT22;4064;48.132;11.366;2023-05-27T14:20:05;24.40;45.70
8043;DHT22;4064;48.132;11.366;2023-05-27T14:22:36;24.10;45.30
8043;DHT22;4064;48.132;11.366;2023-05-27T14:25:03;24.10;47.20
8043;DHT22;4064;48.132;11.366;2023-05-27T14:27:31;24.20;46.50
8043;DHT22;4064;48.132;11.366;2023-05-27T14:29:57;24.10;46.20
8043;DHT22;4064;48.132;11.366;2023-05-27T14:32:23;24.00;47.40
8043;DHT22;4064;48.132;11.366;2023-05-27T14:34:49;24.00;46.40
8043;DHT22;4064;48.132;11.366;2023-05-27T14:37:15;23.80;46.90
8043;DHT22;4064;48.132;11.366;2023-05-27T14:39:41;23.60;47.10
8043;DHT22;4064;48.132;11.366;2023-05-27T14:42:07;23.60;47.70
8043;DHT22;4064;48.132;11.366;2023-05-27T14:44:34;23.60;47.30
8043;DHT22;4064;48.132;11.366;2023-05-27T14:47:03;23.50;47.10
8043;DHT22;4064;48.132;11.366;2023-05-27T14:49:29;23.50;47.10
8043;DHT22;4064;48.132;11.366;2023-05-27T14:51:55;23.40;46.90
8043;DHT22;4064;48.132;11.366;2023-05-27T14:54:20;23.50;48.00
8043;DHT22;4064;48.132;11.366;2023-05-27T14:56:47;23.40;47.10
8043;DHT22;4064;48.132;11.366;2023-05-27T14:59:13;23.40;47.40
8043;DHT22;4064;48.132;11.366;2023-05-27T15:01:39;23.30;46.00
8043;DHT22;4064;48.132;11.366;2023-05-27T15:04:05;23.20;46.00
8043;DHT22;4064;48.132;11.366;2023-05-27T15:06:31;23.10;46.30
8043;DHT22;4064;48.132;11.366;2023-05-27T15:08:57;23.10;47.40
8043;DHT22;4064;48.132;11.366;2023-05-27T15:11:23;23.00;46.00
8043;DHT22;4064;48.132;11.366;2023-05-27T15:13:49;22.90;46.40
8043;DHT22;4064;48.132;11.366;2023-05-27T15:16:15;22.80;45.80
8043;DHT22;4064;48.132;11.366;2023-05-27T15:18:41;22.80;46.10
8043;DHT22;4064;48.132;11.366;2023-05-27T15:21:06;22.80;46.90
8043;DHT22;4064;48.132;11.366;2023-05-27T15:23:33;22.80;47.10
8043;DHT22;4064;48.132;11.366;2023-05-27T15:26:00;22.80;47.30
8043;DHT22;4064;48.132;11.366;2023-05-27T15:28:25;22.90;48.30
8043;DHT22;4064;48.132;11.366;2023-05-27T15:30:52;22.80;47.80
8043;DHT22;4064;48.132;11.366;2023-05-27T15:33:19;22.80;47.90
8043;DHT22;4064;48.132;11.366;2023-05-27T15:35:45;22.80;47.00
8043;DHT22;4064;48.132;11.366;2023-05-27T15:38:12;22.60;46.60
8043;DHT22;4064;48.132;11.366;2023-05-27T15:40:42;22.50;47.30
8043;DHT22;4064;48.132;11.366;2023-05-27T15:43:10;22.50;47.90
8043;DHT22;4064;48.132;11.366;2023-05-27T15:45:37;22.50;47.80
8043;DHT22;4064;48.132;11.366;2023-05-27T15:48:06;22.50;47.50
8043;DHT22;4064;48.132;11.366;2023-05-27T15:50:33;22.50;47.30
8043;DHT22;4064;48.132;11.366;2023-05-27T15:52:58;22.40;47.00
8043;DHT22;4064;48.132;11.366;2023-05-27T15:55:24;22.30;46.50